Time,TemperatureF,DewpointF,PressureIn,WindDirection,WindDirectionDegrees,WindSpeedMPH,WindSpeedGustMPH,Humidity,HourlyPrecipIn,Conditions,Clouds,dailyrainin,SoftwareType,DateUTC
2013-08-06 00:04:00,64.0,59.2,29.75,NW,315,4.0,4.0,84,0.00,,,0.00,meteohub,2013-08-06 05:04:00,
2013-08-06 00:09:00,63.9,59.0,29.76,NW,315,4.0,4.0,84,0.00,,,0.00,meteohub,2013-08-06 05:09:00,
2013-08-06 00:14:00,63.7,58.8,29.75,NW,315,4.0,4.0,84,0.00,,,0.00,meteohub,2013-08-06 05:14:00,
2013-08-06 00:20:00,63.7,58.8,29.75,NW,315,4.0,4.0,84,0.00,,,0.00,meteohub,2013-08-06 05:20:00,
2013-08-06 00:25:00,63.7,59.0,29.75,NW,315,4.0,4.0,85,0.00,,,0.00,meteohub,2013-08-06 05:25:00,
2013-08-06 00:30:00,63.9,59.2,29.75,NW,315,4.0,4.0,85,0.00,,,0.00,meteohub,2013-08-06 05:30:00,
2013-08-06 00:35:00,63.9,59.2,29.75,NW,315,4.0,4.0,85,0.00,,,0.00,meteohub,2013-08-06 05:35:00,
2013-08-06 00:40:00,63.7,59.0,29.75,NW,315,4.0,4.0,85,0.00,,,0.00,meteohub,2013-08-06 05:40:00,
2013-08-06 00:45:00,63.7,59.0,29.74,North,0,2.0,4.0,85,0.00,,,0.00,meteohub,2013-08-06 05:45:00,
2013-08-06 00:50:00,63.3,58.8,29.74,North,0,2.0,4.0,85,0.00,,,0.00,meteohub,2013-08-06 05:50:00,
2013-08-06 00:55:00,63.0,58.5,29.73,North,0,2.0,4.0,85,0.00,,,0.00,meteohub,2013-08-06 05:55:00,
2013-08-06 01:00:00,62.6,58.1,29.73,North,0,0.0,2.0,85,0.00,,,0.00,meteohub,2013-08-06 06:00:00,
2013-08-06 01:05:00,62.4,58.1,29.74,North,0,0.0,2.0,86,0.00,,,0.00,meteohub,2013-08-06 06:05:00,
2013-08-06 01:10:00,62.2,57.7,29.74,SW,225,0.0,2.0,85,0.00,,,0.00,meteohub,2013-08-06 06:10:00,
2013-08-06 01:15:00,61.9,57.4,29.73,SW,225,2.0,2.0,85,0.00,,,0.00,meteohub,2013-08-06 06:15:00,
2013-08-06 01:20:00,61.3,56.8,29.74,SW,225,2.0,3.0,85,0.00,,,0.00,meteohub,2013-08-06 06:20:00,
2013-08-06 01:26:00,61.0,56.5,29.73,West,270,2.0,3.0,85,0.00,,,0.00,meteohub,2013-08-06 06:26:00,
2013-08-06 01:31:00,60.4,56.3,29.74,SW,225,0.0,3.0,86,0.00,,,0.00,meteohub,2013-08-06 06:31:00,
2013-08-06 01:36:00,60.3,56.1,29.74,West,270,0.0,3.0,86,0.00,,,0.00,meteohub,2013-08-06 06:36:00,
2013-08-06 01:41:00,59.9,55.4,29.74,South,180,3.0,3.0,85,0.00,,,0.00,meteohub,2013-08-06 06:41:00,
2013-08-06 01:46:00,59.5,55.0,29.74,South,180,2.0,4.0,85,0.00,,,0.00,meteohub,2013-08-06 06:46:00,
2013-08-06 01:51:00,59.2,54.7,29.74,West,270,2.0,4.0,85,0.00,,,0.00,meteohub,2013-08-06 06:51:00,
2013-08-06 01:56:00,59.2,54.7,29.74,West,270,2.0,4.0,85,0.00,,,0.00,meteohub,2013-08-06 06:56:00,
2013-08-06 02:01:00,59.4,55.2,29.75,West,270,2.0,3.0,86,0.00,,,0.00,meteohub,2013-08-06 07:01:00,
2013-08-06 02:06:00,59.5,55.4,29.75,North,0,2.0,2.0,86,0.00,,,0.00,meteohub,2013-08-06 07:06:00,
2013-08-06 02:11:00,59.7,55.6,29.74,North,0,2.0,2.0,86,0.00,,,0.00,meteohub,2013-08-06 07:11:00,
2013-08-06 02:16:00,59.2,55.0,29.73,East,90,2.0,3.0,86,0.00,,,0.00,meteohub,2013-08-06 07:16:00,
2013-08-06 02:21:00,58.3,54.1,29.73,SE,135,2.0,3.0,86,0.00,,,0.00,meteohub,2013-08-06 07:21:00,
2013-08-06 02:26:00,57.9,53.8,29.74,SE,135,3.0,3.0,86,0.00,,,0.00,meteohub,2013-08-06 07:26:00,
2013-08-06 02:32:00,57.9,53.8,29.74,SE,135,2.0,3.0,86,0.00,,,0.00,meteohub,2013-08-06 07:32:00,
2013-08-06 02:37:00,57.9,54.1,29.74,SE,135,2.0,3.0,87,0.00,,,0.00,meteohub,2013-08-06 07:37:00,
2013-08-06 02:42:00,58.1,54.3,29.74,South,180,2.0,3.0,87,0.00,,,0.00,meteohub,2013-08-06 07:42:00,
2013-08-06 02:47:00,57.7,54.0,29.75,NE,45,0.0,2.0,87,0.00,,,0.00,meteohub,2013-08-06 07:47:00,
2013-08-06 02:52:00,58.8,55.0,29.73,NE,45,4.0,4.0,87,0.00,,,0.00,meteohub,2013-08-06 07:52:00,
2013-08-06 02:57:00,58.6,54.9,29.73,NE,45,4.0,4.0,87,0.00,,,0.00,meteohub,2013-08-06 07:57:00,
2013-08-06 03:02:00,58.5,54.7,29.73,East,90,3.0,4.0,87,0.00,,,0.00,meteohub,2013-08-06 08:02:00,
2013-08-06 03:07:00,57.9,54.1,29.73,SE,135,2.0,4.0,87,0.00,,,0.00,meteohub,2013-08-06 08:07:00,
2013-08-06 03:12:00,57.7,54.0,29.73,SE,135,3.0,4.0,87,0.00,,,0.00,meteohub,2013-08-06 08:12:00,
2013-08-06 03:17:00,57.6,53.8,29.73,South,180,4.0,4.0,87,0.00,,,0.00,meteohub,2013-08-06 08:17:00,
2013-08-06 03:22:00,57.4,53.6,29.72,South,180,2.0,5.0,87,0.00,,,0.00,meteohub,2013-08-06 08:22:00,
2013-08-06 03:27:00,57.2,53.4,29.72,SE,135,0.0,5.0,87,0.00,,,0.00,meteohub,2013-08-06 08:27:00,
2013-08-06 03:32:00,57.2,53.4,29.71,SE,135,3.0,5.0,87,0.00,,,0.00,meteohub,2013-08-06 08:32:00,
2013-08-06 03:37:00,56.8,53.2,29.70,SE,135,4.0,4.0,88,0.00,,,0.00,meteohub,2013-08-06 08:37:00,
2013-08-06 03:43:00,56.7,53.1,29.70,SE,135,3.0,4.0,88,0.00,,,0.00,meteohub,2013-08-06 08:43:00,
2013-08-06 03:48:00,56.5,52.9,29.69,SE,135,3.0,4.0,88,0.00,,,0.00,meteohub,2013-08-06 08:48:00,
2013-08-06 03:53:00,56.5,52.9,29.70,SE,135,4.0,4.0,88,0.00,,,0.00,meteohub,2013-08-06 08:53:00,
2013-08-06 03:58:00,56.7,53.4,29.70,South,180,2.0,4.0,89,0.00,,,0.00,meteohub,2013-08-06 08:58:00,
2013-08-06 04:03:00,56.7,53.4,29.71,South,180,3.0,4.0,89,0.00,,,0.00,meteohub,2013-08-06 09:03:00,
2013-08-06 04:08:00,56.3,52.9,29.71,East,90,2.0,4.0,88,0.00,,,0.00,meteohub,2013-08-06 09:08:00,
2013-08-06 04:13:00,56.1,52.7,29.71,SE,135,4.0,4.0,88,0.00,,,0.00,meteohub,2013-08-06 09:13:00,
2013-08-06 04:18:00,56.3,53.1,29.70,SE,135,3.0,4.0,89,0.00,,,0.00,meteohub,2013-08-06 09:18:00,
2013-08-06 04:23:00,56.5,53.2,29.70,SE,135,3.0,4.0,89,0.00,,,0.00,meteohub,2013-08-06 09:23:00,
2013-08-06 04:28:00,56.7,53.4,29.70,East,90,3.0,4.0,89,0.00,,,0.00,meteohub,2013-08-06 09:28:00,
2013-08-06 04:33:00,56.5,53.2,29.70,East,90,3.0,4.0,89,0.00,,,0.00,meteohub,2013-08-06 09:33:00,
2013-08-06 04:38:00,56.1,52.9,29.70,NE,45,2.0,4.0,89,0.00,,,0.00,meteohub,2013-08-06 09:38:00,
2013-08-06 04:44:00,56.3,53.1,29.70,East,90,3.0,3.0,89,0.00,,,0.00,meteohub,2013-08-06 09:44:00,
2013-08-06 04:49:00,56.1,52.9,29.70,SE,135,2.0,3.0,89,0.00,,,0.00,meteohub,2013-08-06 09:49:00,
2013-08-06 04:54:00,56.3,53.1,29.70,SSE,158,4.0,4.0,89,0.00,,,0.00,meteohub,2013-08-06 09:54:00,
2013-08-06 04:59:00,56.5,53.6,29.69,SE,135,4.0,4.0,90,0.00,,,0.00,meteohub,2013-08-06 09:59:00,
2013-08-06 05:04:00,56.7,53.8,29.70,SE,135,2.0,4.0,90,0.00,,,0.00,meteohub,2013-08-06 10:04:00,
2013-08-06 05:09:00,56.3,53.1,29.70,SE,135,3.0,4.0,89,0.00,,,0.00,meteohub,2013-08-06 10:09:00,
2013-08-06 05:14:00,56.3,53.4,29.71,SSE,158,4.0,4.0,90,0.00,,,0.00,meteohub,2013-08-06 10:14:00,
2013-08-06 05:19:00,56.3,53.4,29.70,SE,135,4.0,4.0,90,0.00,,,0.00,meteohub,2013-08-06 10:19:00,
2013-08-06 05:24:00,56.5,53.6,29.71,SE,135,4.0,4.0,90,0.00,,,0.00,meteohub,2013-08-06 10:24:00,
2013-08-06 05:30:00,56.5,53.6,29.71,SSE,158,5.0,5.0,90,0.00,,,0.00,meteohub,2013-08-06 10:30:00,
2013-08-06 05:35:00,56.7,53.8,29.72,South,180,4.0,4.0,90,0.00,,,0.00,meteohub,2013-08-06 10:35:00,
2013-08-06 05:40:00,56.5,53.6,29.72,South,180,3.0,5.0,90,0.00,,,0.00,meteohub,2013-08-06 10:40:00,
2013-08-06 05:45:00,56.5,53.6,29.71,SE,135,3.0,5.0,90,0.00,,,0.00,meteohub,2013-08-06 10:45:00,
2013-08-06 05:50:00,56.5,53.6,29.71,SE,135,4.0,8.0,90,0.00,,,0.00,meteohub,2013-08-06 10:50:00,
2013-08-06 05:55:00,56.3,53.4,29.71,SSE,158,4.0,8.0,90,0.00,,,0.00,meteohub,2013-08-06 10:55:00,
2013-08-06 06:00:00,56.7,54.1,29.71,SE,135,3.0,8.0,91,0.00,,,0.00,meteohub,2013-08-06 11:00:00,
2013-08-06 06:05:00,56.8,54.3,29.71,SE,135,4.0,4.0,91,0.00,,,0.00,meteohub,2013-08-06 11:05:00,
2013-08-06 06:10:00,57.0,54.5,29.71,SE,135,5.0,5.0,91,0.00,,,0.00,meteohub,2013-08-06 11:10:00,
2013-08-06 06:15:00,57.6,54.7,29.71,SE,135,4.0,6.0,90,0.00,,,0.00,meteohub,2013-08-06 11:15:00,
2013-08-06 06:20:00,57.7,54.9,29.70,SE,135,4.0,6.0,90,0.00,,,0.00,meteohub,2013-08-06 11:20:00,
2013-08-06 06:25:00,57.7,54.9,29.70,SE,135,5.0,6.0,90,0.00,,,0.00,meteohub,2013-08-06 11:25:00,
2013-08-06 06:30:00,57.9,55.2,29.70,SE,135,6.0,6.0,91,0.00,,,0.00,meteohub,2013-08-06 11:30:00,
2013-08-06 06:35:00,58.5,55.8,29.69,SE,135,6.0,7.0,91,0.00,,,0.00,meteohub,2013-08-06 11:35:00,
2013-08-06 06:41:00,59.0,56.1,29.69,SE,135,8.0,8.0,90,0.00,,,0.00,meteohub,2013-08-06 11:41:00,
2013-08-06 06:46:00,59.0,56.1,29.70,South,180,6.0,8.0,90,0.00,,,0.00,meteohub,2013-08-06 11:46:00,
2013-08-06 06:51:00,58.8,56.1,29.70,SE,135,5.0,8.0,91,0.00,,,0.00,meteohub,2013-08-06 11:51:00,
2013-08-06 06:56:00,59.0,56.1,29.70,SE,135,6.0,8.0,90,0.00,,,0.00,meteohub,2013-08-06 11:56:00,
2013-08-06 07:01:00,59.0,56.1,29.69,SE,135,7.0,8.0,90,0.00,,,0.00,meteohub,2013-08-06 12:01:00,
2013-08-06 07:06:00,59.2,56.3,29.69,SSE,158,5.0,8.0,90,0.00,,,0.00,meteohub,2013-08-06 12:06:00,
2013-08-06 07:11:00,59.5,56.7,29.70,SE,135,4.0,8.0,90,0.00,,,0.00,meteohub,2013-08-06 12:11:00,
2013-08-06 07:16:00,59.9,57.0,29.70,SE,135,5.0,8.0,90,0.00,,,0.00,meteohub,2013-08-06 12:16:00,
2013-08-06 07:21:00,60.3,57.6,29.69,SE,135,6.0,6.0,91,0.00,,,0.00,meteohub,2013-08-06 12:21:00,
2013-08-06 07:26:00,60.6,57.9,29.70,SE,135,8.0,8.0,91,0.00,,,0.00,meteohub,2013-08-06 12:26:00,
2013-08-06 07:31:00,61.0,58.1,29.70,SE,135,8.0,8.0,90,0.00,,,0.00,meteohub,2013-08-06 12:31:00,
2013-08-06 07:36:00,61.3,58.5,29.70,SE,135,8.0,9.0,90,0.00,,,0.00,meteohub,2013-08-06 12:36:00,
2013-08-06 07:41:00,61.5,58.6,29.70,SE,135,11.0,11.0,90,0.00,,,0.00,meteohub,2013-08-06 12:41:00,
2013-08-06 07:47:00,61.9,59.0,29.70,SE,135,8.0,11.0,90,0.00,,,0.00,meteohub,2013-08-06 12:47:00,
2013-08-06 07:52:00,62.2,59.2,29.70,SE,135,10.0,11.0,90,0.00,,,0.00,meteohub,2013-08-06 12:52:00,
2013-08-06 07:57:00,62.6,59.4,29.70,SE,135,8.0,11.0,89,0.00,,,0.00,meteohub,2013-08-06 12:57:00,
2013-08-06 08:02:00,63.0,59.9,29.71,SE,135,6.0,11.0,90,0.00,,,0.00,meteohub,2013-08-06 13:02:00,
2013-08-06 08:07:00,63.1,60.1,29.70,SE,135,9.0,11.0,90,0.00,,,0.00,meteohub,2013-08-06 13:07:00,
2013-08-06 08:12:00,63.5,60.4,29.70,SE,135,11.0,11.0,90,0.00,,,0.00,meteohub,2013-08-06 13:12:00,
2013-08-06 08:17:00,63.7,60.6,29.69,SE,135,13.0,13.0,90,0.00,,,0.00,meteohub,2013-08-06 13:17:00,
2013-08-06 08:22:00,64.0,61.0,29.69,SE,135,15.0,15.0,90,0.00,,,0.00,meteohub,2013-08-06 13:22:00,
2013-08-06 08:28:00,64.8,62.1,29.69,SE,135,9.0,15.0,91,0.00,,,0.00,meteohub,2013-08-06 13:28:00,
2013-08-06 08:33:00,65.1,62.8,29.69,SE,135,11.0,15.0,92,0.00,,,0.00,meteohub,2013-08-06 13:33:00,
2013-08-06 08:38:00,65.1,62.4,29.68,South,180,11.0,15.0,91,0.00,,,0.00,meteohub,2013-08-06 13:38:00,
2013-08-06 08:43:00,65.3,62.6,29.68,SE,135,10.0,13.0,91,0.00,,,0.00,meteohub,2013-08-06 13:43:00,
2013-08-06 08:48:00,65.7,63.0,29.68,SSE,158,10.0,13.0,91,0.00,,,0.00,meteohub,2013-08-06 13:48:00,
2013-08-06 08:53:00,65.8,63.1,29.69,SE,135,8.0,13.0,91,0.00,,,0.00,meteohub,2013-08-06 13:53:00,
2013-08-06 08:58:00,66.0,63.3,29.68,SSE,158,12.0,13.0,91,0.00,,,0.00,meteohub,2013-08-06 13:58:00,
2013-08-06 09:03:00,66.2,63.1,29.68,SE,135,9.0,13.0,90,0.00,,,0.00,meteohub,2013-08-06 14:03:00,
2013-08-06 09:08:00,66.9,63.9,29.69,South,180,10.0,13.0,90,0.00,,,0.00,meteohub,2013-08-06 14:08:00,
2013-08-06 09:13:00,67.1,64.0,29.68,South,180,12.0,13.0,90,0.00,,,0.00,meteohub,2013-08-06 14:13:00,
2013-08-06 09:19:00,67.1,63.7,29.68,SSE,158,12.0,13.0,89,0.00,,,0.00,meteohub,2013-08-06 14:19:00,
2013-08-06 09:24:00,67.6,64.2,29.68,SE,135,13.0,14.0,89,0.00,,,0.00,meteohub,2013-08-06 14:24:00,
2013-08-06 09:29:00,68.2,64.2,29.67,SSE,158,10.0,15.0,87,0.00,,,0.00,meteohub,2013-08-06 14:29:00,
2013-08-06 09:34:00,68.9,64.9,29.67,SE,135,12.0,15.0,87,0.00,,,0.00,meteohub,2013-08-06 14:34:00,
2013-08-06 09:39:00,68.9,64.2,29.66,SE,135,13.0,13.0,85,0.00,,,0.00,meteohub,2013-08-06 14:39:00,
2013-08-06 09:44:00,68.7,63.7,29.67,South,180,12.0,15.0,84,0.00,,,0.00,meteohub,2013-08-06 14:44:00,
2013-08-06 09:49:00,69.3,64.2,29.67,SE,135,11.0,16.0,84,0.00,,,0.00,meteohub,2013-08-06 14:49:00,
2013-08-06 09:54:00,70.2,65.1,29.66,SSE,158,12.0,16.0,84,0.00,,,0.00,meteohub,2013-08-06 14:54:00,
2013-08-06 10:00:00,71.2,66.2,29.67,South,180,13.0,15.0,84,0.00,,,0.00,meteohub,2013-08-06 15:00:00,
2013-08-06 10:05:00,71.6,65.8,29.66,South,180,13.0,17.0,82,0.00,,,0.00,meteohub,2013-08-06 15:05:00,
2013-08-06 10:10:00,72.3,66.6,29.66,SSE,158,15.0,17.0,82,0.00,,,0.00,meteohub,2013-08-06 15:10:00,
2013-08-06 10:15:00,72.9,66.7,29.66,South,180,12.0,17.0,81,0.00,,,0.00,meteohub,2013-08-06 15:15:00,
2013-08-06 10:20:00,73.4,67.6,29.66,South,180,15.0,17.0,82,0.00,,,0.00,meteohub,2013-08-06 15:20:00,
2013-08-06 10:25:00,73.4,66.9,29.66,South,180,14.0,17.0,80,0.00,,,0.00,meteohub,2013-08-06 15:25:00,
2013-08-06 10:30:00,75.0,68.4,29.66,South,180,14.0,15.0,80,0.00,,,0.00,meteohub,2013-08-06 15:30:00,
2013-08-06 10:35:00,76.3,69.3,29.66,South,180,10.0,15.0,79,0.00,,,0.00,meteohub,2013-08-06 15:35:00,
2013-08-06 10:41:00,77.4,69.3,29.66,South,180,20.0,20.0,76,0.00,,,0.00,meteohub,2013-08-06 15:41:00,
2013-08-06 10:46:00,77.2,68.2,29.66,South,180,15.0,20.0,74,0.00,,,0.00,meteohub,2013-08-06 15:46:00,
2013-08-06 10:51:00,77.7,68.4,29.66,South,180,15.0,20.0,73,0.00,,,0.00,meteohub,2013-08-06 15:51:00,
2013-08-06 10:56:00,78.3,68.5,29.67,SW,225,15.0,20.0,72,0.00,,,0.00,meteohub,2013-08-06 15:56:00,
2013-08-06 11:01:00,78.4,67.8,29.66,South,180,15.0,18.0,70,0.00,,,0.00,meteohub,2013-08-06 16:01:00,
2013-08-06 11:06:00,79.0,68.0,29.66,SW,225,14.0,18.0,69,0.00,,,0.00,meteohub,2013-08-06 16:06:00,
2013-08-06 11:11:00,79.0,67.1,29.66,SW,225,14.0,16.0,67,0.00,,,0.00,meteohub,2013-08-06 16:11:00,
2013-08-06 11:16:00,79.3,67.5,29.65,South,180,12.0,16.0,67,0.00,,,0.00,meteohub,2013-08-06 16:16:00,
2013-08-06 11:21:00,79.7,67.8,29.65,SW,225,15.0,16.0,67,0.00,,,0.00,meteohub,2013-08-06 16:21:00,
2013-08-06 11:26:00,80.1,67.6,29.65,South,180,13.0,16.0,66,0.00,,,0.00,meteohub,2013-08-06 16:26:00,
2013-08-06 11:31:00,80.6,67.8,29.65,SE,135,11.0,15.0,65,0.00,,,0.00,meteohub,2013-08-06 16:31:00,
2013-08-06 11:37:00,80.4,67.6,29.65,SSW,203,12.0,15.0,65,0.00,,,0.00,meteohub,2013-08-06 16:37:00,
2013-08-06 11:42:00,80.6,67.3,29.65,South,180,11.0,14.0,64,0.00,,,0.00,meteohub,2013-08-06 16:42:00,
2013-08-06 11:47:00,81.0,67.1,29.66,South,180,15.0,15.0,63,0.00,,,0.00,meteohub,2013-08-06 16:47:00,
2013-08-06 11:52:00,81.3,67.1,29.65,SW,225,11.0,15.0,62,0.00,,,0.00,meteohub,2013-08-06 16:52:00,
2013-08-06 11:57:00,81.7,66.9,29.65,SW,225,15.0,15.0,61,0.00,,,0.00,meteohub,2013-08-06 16:57:00,
2013-08-06 12:02:00,82.0,67.3,29.65,South,180,14.0,15.0,61,0.00,,,0.00,meteohub,2013-08-06 17:02:00,
2013-08-06 12:07:00,82.4,68.0,29.66,South,180,14.0,15.0,62,0.00,,,0.00,meteohub,2013-08-06 17:07:00,
2013-08-06 12:12:00,82.6,67.8,29.65,SW,225,15.0,15.0,61,0.00,,,0.00,meteohub,2013-08-06 17:12:00,
2013-08-06 12:17:00,82.8,67.5,29.65,SW,225,13.0,15.0,60,0.00,,,0.00,meteohub,2013-08-06 17:17:00,
2013-08-06 12:22:00,83.1,67.3,29.65,SW,225,11.0,15.0,59,0.00,,,0.00,meteohub,2013-08-06 17:22:00,
2013-08-06 12:27:00,83.5,66.6,29.66,SW,225,12.0,15.0,57,0.00,,,0.00,meteohub,2013-08-06 17:27:00,
2013-08-06 12:30:00,83.7,66.7,29.65,West,270,8.0,14.0,57,0.00,,,0.00,meteohub,2013-08-06 17:30:00,
2013-08-06 12:35:00,83.8,66.4,29.65,South,180,10.0,12.0,56,0.00,,,0.00,meteohub,2013-08-06 17:35:00,
2013-08-06 12:40:00,84.4,66.4,29.65,SW,225,13.0,13.0,55,0.00,,,0.00,meteohub,2013-08-06 17:40:00,
2013-08-06 12:45:00,84.9,66.4,29.65,West,270,12.0,14.0,54,0.00,,,0.00,meteohub,2013-08-06 17:45:00,
2013-08-06 12:50:00,84.0,62.8,29.65,West,270,14.0,14.0,49,0.00,,,0.00,meteohub,2013-08-06 17:50:00,
2013-08-06 12:55:00,82.2,61.7,29.65,West,270,15.0,18.0,50,0.00,,,0.00,meteohub,2013-08-06 17:55:00,
2013-08-06 13:00:00,81.5,63.9,29.65,NW,315,14.0,18.0,55,0.00,,,0.00,meteohub,2013-08-06 18:00:00,
2013-08-06 13:05:00,82.2,65.5,29.65,SW,225,12.0,18.0,57,0.00,,,0.00,meteohub,2013-08-06 18:05:00,
2013-08-06 13:10:00,83.8,66.0,29.65,SW,225,15.0,17.0,55,0.00,,,0.00,meteohub,2013-08-06 18:10:00,
2013-08-06 13:16:00,83.7,64.8,29.65,West,270,12.0,17.0,53,0.00,,,0.00,meteohub,2013-08-06 18:16:00,
2013-08-06 13:21:00,84.0,65.1,29.65,West,270,17.0,17.0,53,0.00,,,0.00,meteohub,2013-08-06 18:21:00,
2013-08-06 13:26:00,84.4,64.8,29.65,WNW,293,14.0,17.0,52,0.00,,,0.00,meteohub,2013-08-06 18:26:00,
2013-08-06 13:31:00,84.6,65.5,29.64,West,270,13.0,17.0,53,0.00,,,0.00,meteohub,2013-08-06 18:31:00,
2013-08-06 13:36:00,83.8,64.4,29.64,NW,315,11.0,18.0,52,0.00,,,0.00,meteohub,2013-08-06 18:36:00,
2013-08-06 13:41:00,83.8,64.9,29.64,West,270,17.0,18.0,53,0.00,,,0.00,meteohub,2013-08-06 18:41:00,
2013-08-06 13:46:00,83.7,64.8,29.64,SW,225,15.0,20.0,53,0.00,,,0.00,meteohub,2013-08-06 18:46:00,
2013-08-06 13:51:00,84.2,64.0,29.64,South,180,8.0,20.0,51,0.00,,,0.00,meteohub,2013-08-06 18:51:00,
2013-08-06 13:56:00,84.4,62.6,29.64,West,270,16.0,20.0,48,0.00,,,0.00,meteohub,2013-08-06 18:56:00,
2013-08-06 14:02:00,83.7,61.3,29.64,South,180,11.0,17.0,47,0.00,,,0.00,meteohub,2013-08-06 19:02:00,
2013-08-06 14:07:00,84.0,62.8,29.64,West,270,14.0,17.0,49,0.00,,,0.00,meteohub,2013-08-06 19:07:00,
2013-08-06 14:12:00,84.0,62.8,29.64,West,270,16.0,17.0,49,0.00,,,0.00,meteohub,2013-08-06 19:12:00,
2013-08-06 14:17:00,83.3,62.8,29.64,West,270,18.0,18.0,50,0.00,,,0.00,meteohub,2013-08-06 19:17:00,
2013-08-06 14:22:00,83.7,62.4,29.64,West,270,15.0,18.0,49,0.00,,,0.00,meteohub,2013-08-06 19:22:00,
2013-08-06 14:27:00,84.2,63.0,29.64,West,270,11.0,18.0,49,0.00,,,0.00,meteohub,2013-08-06 19:27:00,
2013-08-06 14:33:00,85.1,64.9,29.64,WNW,293,13.0,18.0,51,0.00,,,0.00,meteohub,2013-08-06 19:33:00,
2013-08-06 14:38:00,85.3,63.3,29.64,SW,225,15.0,17.0,48,0.00,,,0.00,meteohub,2013-08-06 19:38:00,
2013-08-06 14:43:00,85.3,64.0,29.63,WNW,293,7.0,17.0,49,0.00,,,0.00,meteohub,2013-08-06 19:43:00,
2013-08-06 14:48:00,85.6,64.9,29.63,SW,225,11.0,17.0,50,0.00,,,0.00,meteohub,2013-08-06 19:48:00,
2013-08-06 14:53:00,86.2,64.2,29.64,West,270,15.0,18.0,48,0.00,,,0.00,meteohub,2013-08-06 19:53:00,
2013-08-06 14:58:00,86.0,64.6,29.64,West,270,14.0,19.0,49,0.00,,,0.00,meteohub,2013-08-06 19:58:00,
2013-08-06 15:03:00,86.2,65.3,29.63,West,270,18.0,19.0,50,0.00,,,0.00,meteohub,2013-08-06 20:03:00,
2013-08-06 15:09:00,86.4,64.9,29.63,NW,315,11.0,19.0,49,0.00,,,0.00,meteohub,2013-08-06 20:09:00,
2013-08-06 15:14:00,86.7,65.3,29.64,SW,225,17.0,19.0,49,0.00,,,0.00,meteohub,2013-08-06 20:14:00,
2013-08-06 15:19:00,87.1,66.2,29.63,WNW,293,15.0,18.0,50,0.00,,,0.00,meteohub,2013-08-06 20:19:00,
2013-08-06 15:24:00,86.5,65.1,29.63,SW,225,17.0,18.0,49,0.00,,,0.00,meteohub,2013-08-06 20:24:00,
2013-08-06 15:29:00,87.1,66.2,29.62,NW,315,14.0,18.0,50,0.00,,,0.00,meteohub,2013-08-06 20:29:00,
2013-08-06 15:32:00,87.1,65.7,29.63,WNW,293,11.0,17.0,49,0.00,,,0.00,meteohub,2013-08-06 20:32:00,
2013-08-06 15:37:00,87.8,66.2,29.63,West,270,17.0,17.0,49,0.00,,,0.00,meteohub,2013-08-06 20:37:00,
2013-08-06 15:42:00,88.7,65.8,29.62,West,270,14.0,17.0,47,0.00,,,0.00,meteohub,2013-08-06 20:42:00,
2013-08-06 15:47:00,88.5,65.1,29.62,West,270,15.0,17.0,46,0.00,,,0.00,meteohub,2013-08-06 20:47:00,
2013-08-06 15:52:00,88.9,67.3,29.62,SW,225,11.0,17.0,49,0.00,,,0.00,meteohub,2013-08-06 20:52:00,
2013-08-06 15:57:00,89.6,64.8,29.62,West,270,21.0,21.0,44,0.00,,,0.00,meteohub,2013-08-06 20:57:00,
2013-08-06 16:02:00,88.9,64.8,29.61,West,270,22.0,22.0,45,0.00,,,0.00,meteohub,2013-08-06 21:02:00,
2013-08-06 16:07:00,88.0,63.3,29.62,SW,225,19.0,24.0,44,0.00,,,0.00,meteohub,2013-08-06 21:07:00,
2013-08-06 16:13:00,88.3,63.7,29.61,ENE,68,12.0,24.0,44,0.00,,,0.00,meteohub,2013-08-06 21:13:00,
2013-08-06 16:18:00,87.8,63.9,29.61,NW,315,17.0,24.0,45,0.00,,,0.00,meteohub,2013-08-06 21:18:00,
2013-08-06 16:23:00,87.8,63.9,29.61,West,270,17.0,24.0,45,0.00,,,0.00,meteohub,2013-08-06 21:23:00,
2013-08-06 16:28:00,87.8,63.9,29.61,West,270,18.0,21.0,45,0.00,,,0.00,meteohub,2013-08-06 21:28:00,
2013-08-06 16:33:00,88.2,65.3,29.61,NW,315,15.0,21.0,47,0.00,,,0.00,meteohub,2013-08-06 21:33:00,
2013-08-06 16:38:00,88.2,63.5,29.60,West,270,19.0,21.0,44,0.00,,,0.00,meteohub,2013-08-06 21:38:00,
2013-08-06 16:43:00,87.8,63.1,29.61,West,270,14.0,22.0,44,0.00,,,0.00,meteohub,2013-08-06 21:43:00,
2013-08-06 16:48:00,86.0,63.5,29.61,West,270,15.0,22.0,47,0.00,,,0.00,meteohub,2013-08-06 21:48:00,
2013-08-06 16:53:00,85.3,64.0,29.60,West,270,19.0,22.0,49,0.00,,,0.00,meteohub,2013-08-06 21:53:00,
2013-08-06 16:59:00,84.9,63.7,29.61,West,270,16.0,22.0,49,0.00,,,0.00,meteohub,2013-08-06 21:59:00,
2013-08-06 17:04:00,84.7,63.5,29.60,West,270,14.0,20.0,49,0.00,,,0.00,meteohub,2013-08-06 22:04:00,
2013-08-06 17:09:00,86.0,65.1,29.60,West,270,17.0,19.0,50,0.00,,,0.00,meteohub,2013-08-06 22:09:00,
2013-08-06 17:14:00,87.3,65.8,29.60,West,270,17.0,17.0,49,0.00,,,0.00,meteohub,2013-08-06 22:14:00,
2013-08-06 17:19:00,87.4,65.8,29.60,SW,225,16.0,17.0,49,0.00,,,0.00,meteohub,2013-08-06 22:19:00,
2013-08-06 17:24:00,87.3,65.1,29.60,West,270,19.0,21.0,48,0.00,,,0.00,meteohub,2013-08-06 22:24:00,
2013-08-06 17:29:00,87.1,64.4,29.60,West,270,20.0,24.0,47,0.00,,,0.00,meteohub,2013-08-06 22:29:00,
2013-08-06 17:34:00,87.1,64.9,29.60,West,270,16.0,24.0,48,0.00,,,0.00,meteohub,2013-08-06 22:34:00,
2013-08-06 17:39:00,87.1,64.9,29.59,West,270,15.0,24.0,48,0.00,,,0.00,meteohub,2013-08-06 22:39:00,
2013-08-06 17:44:00,87.1,64.9,29.59,West,270,16.0,21.0,48,0.00,,,0.00,meteohub,2013-08-06 22:44:00,
2013-08-06 17:49:00,87.1,64.9,29.59,WNW,293,20.0,21.0,48,0.00,,,0.00,meteohub,2013-08-06 22:49:00,
2013-08-06 17:55:00,87.1,64.9,29.59,SW,225,16.0,21.0,48,0.00,,,0.00,meteohub,2013-08-06 22:55:00,
2013-08-06 18:00:00,87.1,64.9,29.58,West,270,22.0,22.0,48,0.00,,,0.00,meteohub,2013-08-06 23:00:00,
2013-08-06 18:05:00,86.7,64.8,29.59,West,270,20.0,21.0,48,0.00,,,0.00,meteohub,2013-08-06 23:05:00,
2013-08-06 18:10:00,86.7,65.3,29.59,SW,225,17.0,22.0,49,0.00,,,0.00,meteohub,2013-08-06 23:10:00,
2013-08-06 18:15:00,86.7,65.3,29.60,West,270,15.0,22.0,49,0.00,,,0.00,meteohub,2013-08-06 23:15:00,
2013-08-06 18:20:00,86.9,65.5,29.59,West,270,16.0,21.0,49,0.00,,,0.00,meteohub,2013-08-06 23:20:00,
2013-08-06 18:25:00,86.7,65.3,29.59,West,270,18.0,21.0,49,0.00,,,0.00,meteohub,2013-08-06 23:25:00,
2013-08-06 18:30:00,86.7,65.8,29.60,West,270,15.0,21.0,50,0.00,,,0.00,meteohub,2013-08-06 23:30:00,
2013-08-06 18:35:00,86.5,65.7,29.60,West,270,15.0,21.0,50,0.00,,,0.00,meteohub,2013-08-06 23:35:00,
2013-08-06 18:40:00,86.4,65.5,29.60,West,270,12.0,18.0,50,0.00,,,0.00,meteohub,2013-08-06 23:40:00,
2013-08-06 18:45:00,84.9,64.8,29.60,West,270,12.0,17.0,51,0.00,,,0.00,meteohub,2013-08-06 23:45:00,
2013-08-06 18:50:00,83.5,64.6,29.60,West,270,14.0,17.0,53,0.00,,,0.00,meteohub,2013-08-06 23:50:00,
2013-08-06 18:55:00,84.0,65.1,29.60,West,270,14.0,16.0,53,0.00,,,0.00,meteohub,2013-08-06 23:55:00,
2013-08-06 19:00:00,85.1,64.9,29.60,West,270,15.0,16.0,51,0.00,,,0.00,meteohub,2013-08-07 00:00:00,
2013-08-06 19:05:00,85.5,64.0,29.60,West,270,17.0,17.0,49,0.00,,,0.00,meteohub,2013-08-07 00:05:00,
2013-08-06 19:11:00,85.3,63.3,29.60,West,270,17.0,19.0,48,0.00,,,0.00,meteohub,2013-08-07 00:11:00,
2013-08-06 19:16:00,84.7,62.2,29.61,West,270,17.0,20.0,47,0.00,,,0.00,meteohub,2013-08-07 00:16:00,
2013-08-06 19:21:00,84.7,63.0,29.61,West,270,12.0,20.0,48,0.00,,,0.00,meteohub,2013-08-07 00:21:00,
2013-08-06 19:26:00,84.4,62.6,29.61,West,270,15.0,20.0,48,0.00,,,0.00,meteohub,2013-08-07 00:26:00,
2013-08-06 19:31:00,83.8,62.6,29.61,West,270,21.0,21.0,49,0.00,,,0.00,meteohub,2013-08-07 00:31:00,
2013-08-06 19:36:00,83.3,62.8,29.61,West,270,21.0,21.0,50,0.00,,,0.00,meteohub,2013-08-07 00:36:00,
2013-08-06 19:41:00,81.7,62.4,29.61,West,270,16.0,21.0,52,0.00,,,0.00,meteohub,2013-08-07 00:41:00,
2013-08-06 19:46:00,80.4,62.2,29.61,West,270,19.0,22.0,54,0.00,,,0.00,meteohub,2013-08-07 00:46:00,
2013-08-06 19:51:00,79.9,62.2,29.62,West,270,17.0,22.0,55,0.00,,,0.00,meteohub,2013-08-07 00:51:00,
2013-08-06 19:56:00,79.5,62.4,29.62,West,270,14.0,22.0,56,0.00,,,0.00,meteohub,2013-08-07 00:56:00,
2013-08-06 20:01:00,79.2,62.1,29.63,West,270,15.0,20.0,56,0.00,,,0.00,meteohub,2013-08-07 01:01:00,
2013-08-06 20:06:00,78.8,62.2,29.64,West,270,15.0,20.0,57,0.00,,,0.00,meteohub,2013-08-07 01:06:00,
2013-08-06 20:12:00,76.8,59.4,29.66,North,0,23.0,35.0,55,0.00,,,0.00,meteohub,2013-08-07 01:12:00,
2013-08-06 20:17:00,74.5,58.8,29.66,North,0,23.0,43.0,58,0.00,,,0.00,meteohub,2013-08-07 01:17:00,
2013-08-06 20:22:00,73.0,57.9,29.65,North,0,22.0,43.0,59,0.00,,,0.00,meteohub,2013-08-07 01:22:00,
2013-08-06 20:27:00,72.5,57.7,29.65,NE,45,17.0,34.0,60,0.00,,,0.00,meteohub,2013-08-07 01:27:00,
2013-08-06 20:32:00,71.8,57.6,29.66,North,0,11.0,26.0,61,0.00,,,0.00,meteohub,2013-08-07 01:32:00,
2013-08-06 20:37:00,70.9,57.7,29.65,NE,45,7.0,23.0,63,0.00,,,0.00,meteohub,2013-08-07 01:37:00,
2013-08-06 20:42:00,70.0,57.7,29.66,NW,315,8.0,22.0,65,0.00,,,0.00,meteohub,2013-08-07 01:42:00,
2013-08-06 20:47:00,69.6,58.1,29.66,North,0,5.0,11.0,67,0.00,,,0.00,meteohub,2013-08-07 01:47:00,
2013-08-06 20:52:00,69.3,58.6,29.67,NW,315,4.0,8.0,69,0.00,,,0.00,meteohub,2013-08-07 01:52:00,
2013-08-06 20:57:00,69.1,58.8,29.67,NW,315,6.0,8.0,70,0.00,,,0.00,meteohub,2013-08-07 01:57:00,
2013-08-06 21:02:00,68.9,58.6,29.66,North,0,7.0,7.0,70,0.00,,,0.00,meteohub,2013-08-07 02:02:00,
2013-08-06 21:08:00,68.7,58.5,29.67,North,0,4.0,7.0,70,0.00,,,0.00,meteohub,2013-08-07 02:08:00,
2013-08-06 21:13:00,68.4,58.6,29.67,West,270,4.0,7.0,71,0.00,,,0.00,meteohub,2013-08-07 02:13:00,
2013-08-06 21:18:00,68.4,58.6,29.68,West,270,5.0,7.0,71,0.00,,,0.00,meteohub,2013-08-07 02:18:00,
2013-08-06 21:23:00,67.8,58.5,29.67,NW,315,5.0,7.0,72,0.00,,,0.00,meteohub,2013-08-07 02:23:00,
2013-08-06 21:28:00,67.5,58.5,29.67,West,270,4.0,5.0,73,0.00,,,0.00,meteohub,2013-08-07 02:28:00,
2013-08-06 21:33:00,67.3,58.3,29.67,NW,315,3.0,5.0,73,0.00,,,0.00,meteohub,2013-08-07 02:33:00,
2013-08-06 21:38:00,66.9,58.3,29.67,West,270,3.0,5.0,74,0.00,,,0.00,meteohub,2013-08-07 02:38:00,
2013-08-06 21:43:00,66.4,57.9,29.67,SW,225,3.0,4.0,74,0.00,,,0.00,meteohub,2013-08-07 02:43:00,
2013-08-06 21:48:00,65.8,57.7,29.67,West,270,4.0,4.0,75,0.00,,,0.00,meteohub,2013-08-07 02:48:00,
2013-08-06 21:53:00,65.5,57.7,29.68,West,270,4.0,4.0,76,0.00,,,0.00,meteohub,2013-08-07 02:53:00,
2013-08-06 21:58:00,65.3,57.9,29.69,West,270,5.0,5.0,77,0.00,,,0.00,meteohub,2013-08-07 02:58:00,
2013-08-06 22:04:00,65.5,58.8,29.69,NW,315,5.0,5.0,79,0.00,,,0.00,meteohub,2013-08-07 03:04:00,
2013-08-06 22:09:00,65.3,59.0,29.69,NW,315,7.0,7.0,80,0.00,,,0.00,meteohub,2013-08-07 03:09:00,
2013-08-06 22:14:00,65.5,59.9,29.69,West,270,8.0,8.0,82,0.00,,,0.00,meteohub,2013-08-07 03:14:00,
2013-08-06 22:19:00,65.7,60.1,29.69,West,270,7.0,8.0,82,0.00,,,0.00,meteohub,2013-08-07 03:19:00,
2013-08-06 22:24:00,65.7,60.1,29.70,NW,315,8.0,8.0,82,0.00,,,0.00,meteohub,2013-08-07 03:24:00,
2013-08-06 22:29:00,65.7,60.1,29.70,West,270,7.0,8.0,82,0.00,,,0.00,meteohub,2013-08-07 03:29:00,
2013-08-06 22:34:00,65.7,60.1,29.70,West,270,6.0,8.0,82,0.00,,,0.00,meteohub,2013-08-07 03:34:00,
2013-08-06 22:39:00,65.3,59.7,29.70,West,270,8.0,8.0,82,0.00,,,0.00,meteohub,2013-08-07 03:39:00,
2013-08-06 22:44:00,64.9,59.4,29.70,West,270,8.0,10.0,82,0.00,,,0.00,meteohub,2013-08-07 03:44:00,
2013-08-06 22:49:00,64.9,59.7,29.70,West,270,11.0,11.0,83,0.00,,,0.00,meteohub,2013-08-07 03:49:00,
2013-08-06 22:54:00,64.9,59.7,29.70,West,270,13.0,13.0,83,0.00,,,0.00,meteohub,2013-08-07 03:54:00,
2013-08-06 23:00:00,64.9,59.7,29.71,NW,315,11.0,12.0,83,0.00,,,0.00,meteohub,2013-08-07 04:00:00,
2013-08-06 23:01:00,64.9,59.7,29.71,NW,315,11.0,13.0,83,0.00,,,0.00,meteohub,2013-08-07 04:01:00,
2013-08-06 23:02:00,64.9,59.7,29.70,NW,315,11.0,13.0,83,0.00,,,0.00,meteohub,2013-08-07 04:02:00,
2013-08-06 23:03:00,64.9,59.7,29.70,NW,315,11.0,13.0,83,0.00,,,0.00,meteohub,2013-08-07 04:03:00,
2013-08-06 23:08:00,64.6,59.4,29.71,West,270,11.0,13.0,83,0.00,,,0.00,meteohub,2013-08-07 04:08:00,
2013-08-06 23:13:00,64.4,59.2,29.71,NW,315,13.0,13.0,83,0.00,,,0.00,meteohub,2013-08-07 04:13:00,
2013-08-06 23:18:00,64.2,58.3,29.70,NW,315,11.0,13.0,81,0.00,,,0.00,meteohub,2013-08-07 04:18:00,
2013-08-06 23:23:00,64.0,58.1,29.71,NW,315,12.0,15.0,81,0.00,,,0.00,meteohub,2013-08-07 04:23:00,
2013-08-06 23:28:00,63.9,58.3,29.71,NW,315,12.0,15.0,82,0.00,,,0.00,meteohub,2013-08-07 04:28:00,
2013-08-06 23:34:00,63.7,58.1,29.71,West,270,12.0,15.0,82,0.00,,,0.00,meteohub,2013-08-07 04:34:00,
2013-08-06 23:39:00,63.7,58.1,29.71,NW,315,13.0,15.0,82,0.00,,,0.00,meteohub,2013-08-07 04:39:00,
2013-08-06 23:44:00,63.5,58.3,29.72,NW,315,15.0,16.0,83,0.00,,,0.00,meteohub,2013-08-07 04:44:00,
2013-08-06 23:49:00,63.5,58.6,29.71,West,270,11.0,16.0,84,0.00,,,0.00,meteohub,2013-08-07 04:49:00,
2013-08-06 23:54:00,63.3,58.5,29.72,NW,315,12.0,16.0,84,0.00,,,0.00,meteohub,2013-08-07 04:54:00,
2013-08-06 23:59:00,63.3,58.8,29.72,NW,315,13.0,16.0,85,0.00,,,0.00,meteohub,2013-08-07 04:59:00,